Time;durP1;ratioP1;P1;durP2;ratioP2;P2;SDS_P1;SDS_P2;PMS_P1;PMS_P2;Temp;Humidity;BMP_temperature;BMP_pressure;BME280_temperature;BME280_humidity;BME280_pressure;Samples;Min_cycle;Max_cycle;Signal;HPM_P1;HPM_P2
2022/04/20 00:00:57;;;;;;;6.20;5.20;;;;;;;5.90;64.53;99796.84;106792;1270;108046;-70
2022/04/20 00:03:29;;;;;;;7.90;5.10;;;;;;;5.90;64.69;99791.85;107521;1268;138946;-70
2022/04/20 00:06:01;;;;;;;6.20;4.80;;;;;;;5.88;64.70;99789.44;107876;1270;97365;-70
2022/04/20 00:08:34;;;;;;;6.10;4.90;;;;;;;5.85;64.98;99791.58;106601;1268;137545;-69
2022/04/20 00:11:25;;;;;;;6.70;4.90;;;;;;;5.86;64.89;99795.18;106487;1268;112546;-71
2022/04/20 00:13:57;;;;;;;6.70;5.00;;;;;;;5.82;65.04;99792.32;106342;1271;138320;-70
2022/04/20 00:16:29;;;;;;;6.30;4.90;;;;;;;5.82;65.16;99794.05;107644;1269;106949;-70
2022/04/20 00:19:01;;;;;;;7.30;5.10;;;;;;;5.84;65.24;99786.44;107409;1268;97806;-71
2022/04/20 00:21:33;;;;;;;6.90;5.00;;;;;;;5.85;65.13;99781.73;106245;1270;138171;-70
2022/04/20 00:24:06;;;;;;;7.70;4.80;;;;;;;5.88;65.41;99777.20;106319;1271;111026;-68
2022/04/20 00:26:37;;;;;;;5.90;5.00;;;;;;;5.92;65.19;99777.83;107803;1270;139058;-70
2022/04/20 00:29:10;;;;;;;7.20;5.00;;;;;;;5.93;65.42;99777.48;107804;1271;107762;-69
2022/04/20 00:31:42;;;;;;;5.70;4.60;;;;;;;5.94;65.60;99778.31;107787;1270;139337;-70
2022/04/20 00:34:14;;;;;;;8.70;5.40;;;;;;;5.96;65.40;99774.13;107900;1270;95929;-70
2022/04/20 00:36:50;;;;;;;6.60;5.20;;;;;;;5.99;65.59;99769.23;107916;1269;113244;-69
2022/04/20 00:39:22;;;;;;;7.10;5.40;;;;;;;6.01;65.67;99765.73;107760;1271;138802;-70
2022/04/20 00:41:55;;;;;;;8.60;5.20;;;;;;;6.04;65.72;99766.35;107917;1270;107656;-70
2022/04/20 00:44:27;;;;;;;7.10;5.90;;;;;;;6.07;65.91;99762.85;107662;1270;137905;-70
2022/04/20 00:47:00;;;;;;;6.40;5.30;;;;;;;6.08;66.00;99763.33;107908;1270;96749;-70
2022/04/20 00:49:33;;;;;;;7.50;6.00;;;;;;;6.05;65.67;99756.48;107951;1271;112118;-70
2022/04/20 00:52:07;;;;;;;6.80;5.40;;;;;;;6.04;66.04;99759.27;107718;1271;138416;-69
2022/04/20 00:54:40;;;;;;;6.60;5.60;;;;;;;6.04;65.87;99755.15;107808;1271;109136;-70
2022/04/20 00:57:14;;;;;;;7.40;5.60;;;;;;;6.02;66.11;99757.77;107533;1270;138053;-68
2022/04/20 00:59:49;;;;;;;7.30;5.70;;;;;;;6.01;66.05;99755.55;107828;1267;95687;-70
2022/04/20 01:02:22;;;;;;;6.40;5.40;;;;;;;6.03;66.13;99749.29;107681;1271;138585;-69
2022/04/20 01:04:56;;;;;;;7.50;5.70;;;;;;;6.04;66.46;99746.33;107809;1271;107875;-69
2022/04/20 01:40:44;;;;;;;8.50;6.60;;;;;;;5.89;67.90;99692.11;106420;1260;137927;-91
2022/04/20 01:43:17;;;;;;;8.60;7.00;;;;;;;5.88;67.86;99693.86;105924;1273;108916;-68
2022/04/20 01:46:05;;;;;;;7.90;7.00;;;;;;;5.90;67.90;99687.78;106034;1273;138717;-69
2022/04/20 01:49:07;;;;;;;8.20;6.40;;;;;;;5.90;67.91;99684.86;105941;1275;97832;-69
2022/04/20 01:51:50;;;;;;;8.20;6.20;;;;;;;5.89;68.26;99675.20;106066;1271;138471;-69
2022/04/20 01:54:54;;;;;;;9.30;6.70;;;;;;;5.89;68.07;99676.05;106053;1273;112461;-68
2022/04/20 01:57:29;;;;;;;9.40;6.80;;;;;;;5.85;67.97;99670.62;106560;1273;138411;-69
2022/04/20 02:00:21;;;;;;;9.10;6.60;;;;;;;5.85;68.42;99668.40;106161;1273;109998;-69
2022/04/20 02:02:59;;;;;;;9.00;7.50;;;;;;;5.85;68.27;99663.20;107581;1271;137754;-69
2022/04/20 02:05:53;;;;;;;10.10;6.90;;;;;;;5.83;68.66;99662.90;107534;1273;96176;-70
2022/04/20 02:08:45;;;;;;;8.90;7.20;;;;;;;5.78;68.71;99654.94;107440;1273;140808;-70
2022/04/20 02:11:25;;;;;;;8.50;7.20;;;;;;;5.70;69.06;99654.58;107022;1273;108848;-69
2022/04/20 02:14:05;;;;;;;9.00;7.20;;;;;;;5.65;69.31;99653.48;106005;1273;139401;-69
2022/04/20 02:16:38;;;;;;;8.50;6.60;;;;;;;5.63;69.64;99645.94;106181;1273;97849;-69
2022/04/20 02:19:29;;;;;;;9.70;7.40;;;;;;;5.63;70.19;99641.95;106293;1273;97855;-69
2022/04/20 02:22:24;;;;;;;9.50;7.40;;;;;;;5.58;70.33;99640.17;107351;1272;240659;-70
2022/04/20 02:24:56;;;;;;;9.60;7.30;;;;;;;5.56;70.45;99637.46;107625;1273;107810;-69
2022/04/20 02:27:30;;;;;;;8.60;7.20;;;;;;;5.55;70.76;99631.61;107352;1272;138170;-70
2022/04/20 02:30:02;;;;;;;8.40;7.40;;;;;;;5.55;70.83;99626.95;106189;1273;97865;-69
2022/04/20 02:32:34;;;;;;;9.80;6.80;;;;;;;5.54;71.12;99630.94;106035;1273;138301;-70
2022/04/20 02:35:08;;;;;;;9.50;7.10;;;;;;;5.55;71.21;99629.90;106898;1273;112483;-69
2022/04/20 02:37:40;;;;;;;8.70;7.30;;;;;;;5.58;71.45;99625.18;107699;1273;108936;-70
2022/04/20 02:40:14;;;;;;;8.90;8.00;;;;;;;5.61;71.53;99622.19;106580;1273;138234;-69
2022/04/20 02:42:47;;;;;;;9.30;7.40;;;;;;;5.60;71.51;99611.86;107587;1274;96025;-70
2022/04/20 02:45:19;;;;;;;8.40;7.00;;;;;;;5.60;71.76;99613.77;107456;1274;138016;-70
2022/04/20 02:47:51;;;;;;;8.80;7.70;;;;;;;5.59;71.77;99610.68;107656;1273;112698;-70
2022/04/20 02:50:23;;;;;;;8.70;7.40;;;;;;;5.58;71.81;99606.58;107452;1272;139056;-70
2022/04/20 02:52:56;;;;;;;8.90;7.40;;;;;;;5.59;71.92;99606.71;106027;1275;108827;-70
2022/04/20 02:55:29;;;;;;;8.00;6.70;;;;;;;5.60;72.11;99602.89;107609;1274;95960;-70
2022/04/20 02:58:01;;;;;;;8.30;7.20;;;;;;;5.61;71.99;99605.30;107140;1274;138362;-70
2022/04/20 03:00:33;;;;;;;8.60;6.80;;;;;;;5.63;72.48;99603.35;105982;1274;112541;-69
2022/04/20 03:03:24;;;;;;;7.40;6.20;;;;;;;5.63;72.40;99600.23;105961;1274;138405;-70
2022/04/20 03:05:57;;;;;;;6.70;6.00;;;;;;;5.63;72.98;99599.88;107461;1274;109261;-70
2022/04/20 03:08:29;;;;;;;7.00;6.20;;;;;;;5.66;72.87;99596.19;107223;1276;138757;-69
2022/04/20 03:11:01;;;;;;;7.40;6.10;;;;;;;5.68;72.90;99593.39;107601;1274;96746;-70
2022/04/20 03:13:34;;;;;;;8.20;6.20;;;;;;;5.67;72.77;99589.10;107525;1274;112480;-69
2022/04/20 03:16:06;;;;;;;8.90;6.60;;;;;;;5.67;72.83;99590.14;107489;1274;137510;-70
2022/04/20 03:18:39;;;;;;;7.70;6.40;;;;;;;5.65;72.97;99588.80;107429;1274;108877;-70
2022/04/20 03:21:18;;;;;;;7.40;6.00;;;;;;;5.65;73.12;99586.40;105954;1275;138690;-70
2022/04/20 03:23:50;;;;;;;6.20;5.60;;;;;;;5.67;73.03;99586.50;107166;1274;97845;-69
2022/04/20 03:26:33;;;;;;;6.10;5.20;;;;;;;5.69;73.15;99588.88;105981;1276;138510;-69
2022/04/20 03:29:12;;;;;;;6.50;5.80;;;;;;;5.69;73.06;99583.88;106033;1274;108123;-70
2022/04/20 03:31:45;;;;;;;5.80;5.10;;;;;;;5.70;73.29;99583.16;105960;1275;108743;-70
2022/04/20 03:34:17;;;;;;;6.00;5.40;;;;;;;5.70;73.32;99574.20;107526;1274;138780;-71
2022/04/20 03:36:52;;;;;;;6.60;5.50;;;;;;;5.72;73.25;99572.77;106169;1274;97884;-70
2022/04/20 03:39:24;;;;;;;6.20;5.60;;;;;;;5.74;73.32;99569.45;105967;1274;137387;-70
2022/04/20 03:41:56;;;;;;;7.30;5.80;;;;;;;5.73;73.44;99566.18;106044;1273;108970;-70
2022/04/20 03:44:28;;;;;;;6.60;6.00;;;;;;;5.76;73.44;99565.11;105850;1275;137819;-70
2022/04/20 03:47:00;;;;;;;6.70;6.00;;;;;;;5.79;73.73;99562.27;105997;1274;98319;-70
2022/04/20 03:49:32;;;;;;;7.40;5.50;;;;;;;5.79;73.54;99557.27;106110;1274;97842;-70
2022/04/20 03:52:05;;;;;;;7.60;5.10;;;;;;;5.78;73.62;99556.08;105986;1273;139147;-70
2022/04/20 03:54:38;;;;;;;5.20;4.70;;;;;;;5.80;73.75;99552.94;106032;1274;109089;-70
2022/04/20 03:57:11;;;;;;;6.30;4.90;;;;;;;5.79;74.03;99551.40;105930;1273;138224;-71
2022/04/20 03:59:45;;;;;;;5.30;4.80;;;;;;;5.79;74.01;99550.89;106045;1274;97812;-71
2022/04/20 04:02:19;;;;;;;4.90;4.30;;;;;;;5.79;74.07;99549.86;105737;1274;138183;-71
2022/04/20 04:05:02;;;;;;;5.50;4.80;;;;;;;5.83;74.11;99546.98;106029;1274;112158;-71
2022/04/20 04:07:51;;;;;;;5.60;5.00;;;;;;;5.83;74.38;99540.95;106038;1274;108985;-71
2022/04/20 04:10:28;;;;;;;6.00;5.40;;;;;;;5.82;74.13;99537.52;105900;1274;137643;-71
2022/04/20 04:13:00;;;;;;;7.00;5.20;;;;;;;5.82;74.45;99541.14;105943;1275;98515;-70
2022/04/20 04:15:33;;;;;;;5.10;4.50;;;;;;;5.80;74.47;99541.88;105938;1274;139271;-71
2022/04/20 04:18:06;;;;;;;4.90;4.40;;;;;;;5.80;74.56;99545.50;106024;1274;112482;-69
2022/04/20 04:20:44;;;;;;;6.00;4.20;;;;;;;5.82;74.75;99541.84;105908;1274;138514;-70
2022/04/20 04:23:19;;;;;;;6.20;4.90;;;;;;;5.84;74.59;99534.86;105953;1275;108552;-71
2022/04/20 04:26:07;;;;;;;6.20;4.90;;;;;;;5.89;74.52;99534.08;107430;1274;139004;-70
2022/04/20 04:28:46;;;;;;;7.70;4.50;;;;;;;5.96;74.71;99533.06;106052;1274;97733;-70
2022/04/20 04:31:18;;;;;;;5.80;4.60;;;;;;;6.03;74.77;99532.72;107655;1273;111327;-70
2022/04/20 04:33:51;;;;;;;5.00;4.50;;;;;;;6.09;74.48;99533.24;106187;1275;138291;-70
2022/04/20 04:36:23;;;;;;;5.50;4.80;;;;;;;6.13;74.52;99532.14;106302;1274;108870;-70
2022/04/20 04:39:00;;;;;;;6.40;5.10;;;;;;;6.18;74.15;99533.72;105976;1274;137926;-70
2022/04/20 04:41:35;;;;;;;7.10;4.40;;;;;;;6.22;74.33;99530.34;106143;1274;97871;-70
2022/04/20 04:44:08;;;;;;;5.10;4.00;;;;;;;6.27;74.15;99527.96;105966;1275;139430;-69
2022/04/20 04:49:34;;;;;;;5.30;4.30;;;;;;;6.32;74.28;99521.96;106104;1274;109006;-71
2022/04/20 04:52:11;;;;;;;4.70;4.20;;;;;;;6.36;74.13;99524.27;106141;1274;137911;-71
2022/04/20 04:54:45;;;;;;;6.50;4.70;;;;;;;6.37;74.20;99520.79;107485;1276;95867;-71
2022/04/20 04:57:17;;;;;;;7.10;5.00;;;;;;;6.37;73.96;99521.65;106204;1274;138141;-70
2022/04/20 04:59:49;;;;;;;5.00;4.30;;;;;;;6.36;74.15;99521.67;105962;1276;108910;-71
2022/04/20 05:02:25;;;;;;;5.70;4.60;;;;;;;6.37;74.03;99520.61;105931;1275;138530;-70
2022/04/20 05:04:58;;;;;;;5.30;4.50;;;;;;;6.37;73.85;99516.46;106113;1274;97996;-70
2022/04/20 05:07:34;;;;;;;8.90;5.00;;;;;;;6.36;74.06;99512.00;107293;1274;96104;-70
2022/04/20 05:10:11;;;;;;;6.80;4.70;;;;;;;6.38;74.21;99510.23;105923;1274;138111;-70
2022/04/20 05:12:43;;;;;;;5.40;4.20;;;;;;;6.40;74.14;99508.44;107566;1274;108929;-71
2022/04/20 05:15:17;;;;;;;6.20;4.00;;;;;;;6.45;74.05;99508.46;107307;1274;138809;-71
2022/04/20 05:17:50;;;;;;;5.50;4.20;;;;;;;6.52;74.17;99508.98;107551;1274;96150;-72
2022/04/20 05:20:24;;;;;;;4.50;4.10;;;;;;;6.55;74.24;99505.09;107453;1273;137998;-71
2022/04/20 05:22:57;;;;;;;4.90;4.40;;;;;;;6.56;74.04;99499.72;107598;1274;111309;-71
2022/04/20 05:25:30;;;;;;;5.20;4.70;;;;;;;6.57;74.03;99497.10;107508;1274;108492;-71
2022/04/20 05:28:09;;;;;;;5.00;4.50;;;;;;;6.57;73.95;99493.13;107241;1274;138032;-72
2022/04/20 05:30:41;;;;;;;7.60;5.20;;;;;;;6.56;73.97;99491.94;105988;1273;97868;-71
2022/04/20 05:33:14;;;;;;;4.60;4.20;;;;;;;6.56;74.03;99490.90;105865;1273;138225;-70
2022/04/20 05:35:47;;;;;;;5.70;4.40;;;;;;;6.57;73.99;99490.87;105946;1274;112675;-70
2022/04/20 05:44:00;;;;;;;7.20;4.50;;;;;;;6.58;74.26;99495.34;107614;1273;96653;-71
2022/04/20 05:46:33;;;;;;;6.40;4.40;;;;;;;6.60;74.08;99494.92;106553;1275;138973;-71
2022/04/20 05:49:14;;;;;;;5.70;4.50;;;;;;;6.62;74.44;99493.15;107542;1274;112219;-71
2022/04/20 05:51:46;;;;;;;5.90;4.50;;;;;;;6.63;74.40;99493.63;107212;1274;139406;-72
2022/04/20 05:54:19;;;;;;;4.90;4.10;;;;;;;6.64;74.36;99493.44;106079;1273;109272;-70
2022/04/20 05:56:51;;;;;;;5.20;4.60;;;;;;;6.64;74.10;99491.20;105899;1275;138229;-70
2022/04/20 05:59:24;;;;;;;6.70;4.80;;;;;;;6.66;74.45;99496.67;105933;1275;97815;-71
2022/04/20 06:01:59;;;;;;;6.40;4.70;;;;;;;6.70;74.48;99496.08;105905;1274;108977;-70
2022/04/20 06:04:31;;;;;;;5.70;4.50;;;;;;;6.70;74.41;99492.61;105796;1273;138287;-71
2022/04/20 06:07:07;;;;;;;5.20;4.10;;;;;;;6.71;74.38;99487.39;105973;1274;107897;-71
2022/04/20 06:09:47;;;;;;;6.80;4.60;;;;;;;6.69;74.27;99486.93;105746;1273;138278;-70
2022/04/20 06:12:45;;;;;;;5.30;4.30;;;;;;;6.71;74.44;99484.13;106018;1273;97923;-71
2022/04/20 06:15:35;;;;;;;4.90;4.40;;;;;;;6.70;74.73;99484.82;105967;1273;138976;-71
2022/04/20 06:18:27;;;;;;;5.90;4.30;;;;;;;6.75;74.80;99485.72;105955;1274;107935;-71
2022/04/20 06:21:20;;;;;;;5.90;4.30;;;;;;;6.76;74.78;99484.82;105756;1274;139671;-71
2022/04/20 06:24:08;;;;;;;7.50;4.60;;;;;;;6.82;74.81;99484.48;105893;1274;97841;-71
2022/04/20 06:27:07;;;;;;;5.80;4.10;;;;;;;6.85;74.80;99486.13;105871;1275;137955;-71
2022/04/20 06:30:01;;;;;;;6.40;4.60;;;;;;;6.90;74.76;99485.44;107620;1274;112740;-71
2022/04/20 06:32:57;;;;;;;;;;;;;;;6.94;74.47;99482.89;107292;1274;137573;-70
2022/04/20 06:35:55;;;;;;;4.80;3.80;;;;;;;6.95;74.56;99477.70;105937;1274;108013;-70
2022/04/20 06:38:37;;;;;;;6.80;4.10;;;;;;;6.97;74.08;99479.17;105873;1275;137837;-71
2022/04/20 06:41:29;;;;;;;5.80;4.20;;;;;;;6.95;73.85;99470.95;106068;1274;97981;-70
2022/04/20 06:44:30;;;;;;;5.80;4.00;;;;;;;6.96;74.10;99466.75;105645;1275;139735;-71
2022/04/20 06:47:21;;;;;;;4.50;4.10;;;;;;;6.95;74.11;99466.11;106069;1273;109364;-74
2022/04/20 06:50:23;;;;;;;5.00;4.20;;;;;;;6.94;74.10;99465.11;105978;1273;138478;-72
2022/04/20 06:59:07;;;;;;;6.40;4.40;;;;;;;7.03;74.56;99458.98;106110;1275;111679;-73
2022/04/20 07:02:04;;;;;;;;;;;;;;;7.09;74.32;99459.64;106045;1275;108988;-72
2022/04/20 07:04:50;;;;;;;6.50;4.60;;;;;;;7.11;74.51;99456.98;106102;1273;126531;-72
2022/04/20 07:07:40;;;;;;;5.50;4.10;;;;;;;7.13;74.25;99455.37;107023;1274;98499;-71
2022/04/20 07:10:42;;;;;;;5.90;4.80;;;;;;;7.16;74.31;99457.68;106039;1273;138087;-72
2022/04/20 07:13:19;;;;;;;4.60;4.20;;;;;;;7.22;74.48;99456.66;106072;1276;112447;-72
2022/04/20 07:15:54;;;;;;;7.20;4.70;;;;;;;7.30;74.59;99451.39;106028;1273;138225;-72
2022/04/20 07:18:26;;;;;;;7.60;4.40;;;;;;;7.35;74.45;99451.41;105980;1274;108930;-73
2022/04/20 07:21:03;;;;;;;6.10;4.90;;;;;;;7.37;74.23;99447.55;107489;1273;139755;-74
2022/04/20 07:24:07;;;;;;;5.70;4.20;;;;;;;7.34;74.26;99448.98;107254;1274;96398;-73
2022/04/20 07:26:57;;;;;;;6.30;4.40;;;;;;;7.41;74.22;99449.84;106052;1273;138655;-73
2022/04/20 07:29:48;;;;;;;5.90;4.60;;;;;;;7.45;74.00;99445.55;106138;1274;108187;-74
2022/04/20 07:32:43;;;;;;;5.00;4.30;;;;;;;7.48;73.92;99445.10;106019;1275;137858;-73
2022/04/20 07:35:35;;;;;;;6.40;4.20;;;;;;;7.56;74.26;99438.25;106934;1274;95847;-76
2022/04/20 07:38:27;;;;;;;4.80;4.10;;;;;;;7.91;74.21;99435.03;106146;1273;98041;-74
2022/04/20 07:41:18;;;;;;;4.70;4.00;;;;;;;8.30;73.83;99431.06;106054;1273;112026;-74
2022/04/20 07:44:29;;;;;;;6.20;4.10;;;;;;;8.61;72.95;99422.52;105458;1281;109094;-74
2022/04/20 07:47:33;;;;;;;5.20;4.00;;;;;;;8.77;72.53;99414.27;105311;1281;138259;-74
2022/04/20 07:50:25;;;;;;;7.50;4.60;;;;;;;8.89;72.32;99413.27;105850;1274;97381;-74
2022/04/20 07:53:16;;;;;;;8.20;5.00;;;;;;;8.98;71.61;99401.98;105846;1274;137316;-75
2022/04/20 07:56:02;;;;;;;7.30;5.00;;;;;;;9.04;71.05;99396.41;106063;1276;111774;-75
2022/04/20 07:58:43;;;;;;;7.80;5.10;;;;;;;9.07;70.73;99404.59;106533;1275;137567;-74
2022/04/20 08:01:20;;;;;;;7.40;4.90;;;;;;;9.06;70.68;99404.48;106134;1274;109035;-75
2022/04/20 08:04:18;;;;;;;5.20;4.40;;;;;;;8.97;70.28;99412.42;105920;1274;138003;-75
2022/04/20 08:07:00;;;;;;;7.50;5.20;;;;;;;8.88;70.58;99420.27;106135;1273;97725;-75
2022/04/20 08:09:33;;;;;;;7.00;5.00;;;;;;;8.81;70.61;99426.59;105849;1275;138567;-74
2022/04/20 08:12:06;;;;;;;7.80;4.50;;;;;;;8.74;70.58;99428.75;105914;1273;108873;-74
2022/04/20 08:14:38;;;;;;;7.10;5.10;;;;;;;8.64;70.22;99428.45;106219;1273;107798;-73
2022/04/20 08:17:30;;;;;;;5.90;4.00;;;;;;;8.56;70.25;99427.56;105997;1273;138117;-70
2022/04/20 08:20:23;;;;;;;4.40;4.00;;;;;;;8.51;70.39;99426.84;105784;1273;97879;-71
2022/04/20 08:23:00;;;;;;;9.20;6.20;;;;;;;8.50;70.29;99431.94;106007;1273;137790;-70
2022/04/20 08:25:32;;;;;;;12.30;6.60;;;;;;;8.52;70.46;99432.36;106073;1273;107819;-70
2022/04/20 08:28:04;;;;;;;6.20;4.60;;;;;;;8.54;70.59;99433.67;105918;1274;137684;-70
2022/04/20 08:30:37;;;;;;;7.90;4.90;;;;;;;8.55;70.64;99428.42;106045;1273;97825;-71
2022/04/20 08:33:09;;;;;;;5.20;4.30;;;;;;;8.56;70.48;99419.56;106076;1273;97835;-71
2022/04/20 08:35:41;;;;;;;6.60;4.20;;;;;;;8.57;70.28;99418.65;105945;1274;138017;-70
2022/04/20 08:38:13;;;;;;;4.60;3.70;;;;;;;8.58;70.02;99411.69;106027;1274;109050;-72
2022/04/20 08:40:46;;;;;;;5.30;3.90;;;;;;;8.57;69.88;99410.50;105886;1274;138350;-72
2022/04/20 08:43:18;;;;;;;6.40;4.10;;;;;;;8.55;69.86;99413.73;105965;1273;97859;-74
2022/04/20 08:45:53;;;;;;;5.20;4.00;;;;;;;8.53;69.96;99416.41;105999;1274;138136;-75
2022/04/20 08:48:25;;;;;;;7.40;4.00;;;;;;;8.53;70.15;99417.61;106072;1274;111945;-74
2022/04/20 08:50:57;;;;;;;7.30;4.10;;;;;;;8.56;70.10;99414.89;105919;1273;107936;-74
2022/04/20 08:53:29;;;;;;;6.20;4.70;;;;;;;8.57;70.12;99412.96;105934;1273;137602;-74
2022/04/20 08:58:54;;;;;;;6.90;4.80;;;;;;;8.53;70.11;99420.37;106461;1275;137332;-75
2022/04/20 09:01:29;;;;;;;5.90;4.50;;;;;;;8.52;70.29;99420.75;106009;1275;111204;-74
2022/04/20 09:04:04;;;;;;;7.20;4.90;;;;;;;8.54;70.16;99416.52;105948;1274;138658;-75
2022/04/20 09:06:37;;;;;;;5.40;4.50;;;;;;;8.56;70.11;99416.27;106024;1274;107817;-75
2022/04/20 09:09:09;;;;;;;6.10;4.40;;;;;;;8.60;70.17;99420.80;106061;1274;97661;-74
2022/04/20 09:11:42;;;;;;;7.90;5.10;;;;;;;8.67;70.30;99429.23;105947;1274;137976;-75
2022/04/20 09:14:17;;;;;;;6.00;4.50;;;;;;;8.72;70.31;99431.96;107663;1274;113703;-75
2022/04/20 09:16:52;;;;;;;7.40;5.20;;;;;;;8.73;69.88;99437.81;106152;1274;137823;-74
2022/04/20 09:19:27;;;;;;;8.50;4.90;;;;;;;8.68;69.99;99441.30;107624;1274;107856;-74
2022/04/20 09:21:59;;;;;;;7.00;5.30;;;;;;;8.65;70.01;99442.28;107502;1274;138851;-74
2022/04/20 09:24:31;;;;;;;7.00;5.10;;;;;;;8.64;69.84;99453.74;107669;1274;96067;-74
2022/04/20 09:27:04;;;;;;;6.30;5.30;;;;;;;8.61;69.66;99452.30;107585;1274;110567;-74
2022/04/20 09:29:40;;;;;;;5.70;4.90;;;;;;;8.59;69.83;99445.60;105985;1275;138156;-74
2022/04/20 09:32:15;;;;;;;5.40;4.60;;;;;;;8.56;69.66;99440.70;106105;1275;108937;-75
2022/04/20 09:34:56;;;;;;;6.20;4.80;;;;;;;8.57;69.84;99436.86;106056;1274;138270;-73
2022/04/20 09:37:28;;;;;;;6.40;5.10;;;;;;;8.58;69.70;99439.23;107596;1274;95744;-75
2022/04/20 09:40:04;;;;;;;7.20;4.90;;;;;;;8.59;69.79;99442.84;106640;1274;138501;-76
2022/04/20 09:42:36;;;;;;;6.20;4.90;;;;;;;8.63;70.18;99444.11;105950;1275;108965;-75
2022/04/20 09:45:11;;;;;;;5.30;4.60;;;;;;;8.69;70.00;99447.34;106070;1273;107154;-74
2022/04/20 09:50:33;;;;;;;7.70;5.00;;;;;;;8.71;69.82;99449.67;106874;1273;96082;-75
2022/04/20 09:53:12;;;;;;;6.90;5.60;;;;;;;8.67;69.83;99451.58;105910;1274;137382;-75
2022/04/20 09:55:44;;;;;;;7.80;5.30;;;;;;;8.66;69.68;99458.38;107353;1273;109498;-75
2022/04/20 09:58:18;;;;;;;18.20;6.60;;;;;;;8.62;69.79;99461.63;105950;1273;138556;-75
2022/04/20 10:00:52;;;;;;;8.00;4.90;;;;;;;8.58;69.73;99468.67;107588;1273;96264;-75
2022/04/20 10:03:28;;;;;;;6.60;5.10;;;;;;;8.56;69.64;99472.77;107416;1274;139694;-75
2022/04/20 10:06:02;;;;;;;8.00;4.80;;;;;;;8.53;69.71;99474.44;107302;1274;111323;-76
2022/04/20 10:08:34;;;;;;;6.60;5.10;;;;;;;8.53;69.92;99478.25;106114;1273;108691;-75
2022/04/20 10:11:07;;;;;;;9.10;6.10;;;;;;;8.52;69.81;99478.64;105952;1275;137673;-75
2022/04/20 10:13:41;;;;;;;10.60;7.50;;;;;;;8.51;69.89;99475.39;106068;1273;98050;-75
2022/04/20 10:16:15;;;;;;;9.90;6.90;;;;;;;8.53;70.16;99479.80;105952;1273;138680;-74
2022/04/20 10:18:50;;;;;;;8.90;6.80;;;;;;;8.60;70.19;99479.70;106116;1275;111943;-75
2022/04/20 10:21:27;;;;;;;13.10;7.00;;;;;;;8.63;69.88;99480.15;107430;1274;138257;-74
2022/04/20 10:24:05;;;;;;;10.10;6.70;;;;;;;8.64;69.73;99482.52;106095;1276;107774;-76
2022/04/20 10:26:38;;;;;;;10.70;6.50;;;;;;;8.66;69.72;99478.83;106080;1273;97846;-76
2022/04/20 10:29:17;;;;;;;9.80;5.70;;;;;;;8.70;69.76;99475.70;105935;1273;138314;-76
2022/04/20 10:31:54;;;;;;;8.70;6.00;;;;;;;8.83;69.74;99474.52;106130;1274;112556;-76
2022/04/20 10:34:28;;;;;;;9.20;6.00;;;;;;;9.03;69.81;99479.51;105990;1273;137999;-74
2022/04/20 10:37:23;;;;;;;10.60;6.50;;;;;;;9.21;69.44;99488.38;105814;1276;108782;-76
2022/04/20 10:40:17;;;;;;;9.20;6.30;;;;;;;9.33;69.10;99490.98;105924;1274;138147;-74
2022/04/20 10:43:23;;;;;;;6.80;6.00;;;;;;;9.47;68.64;99486.80;106023;1276;97896;-76
2022/04/20 10:46:17;;;;;;;14.00;7.00;;;;;;;9.61;68.30;99477.56;105961;1276;137866;-75
2022/04/20 10:48:58;;;;;;;8.50;6.90;;;;;;;9.74;67.77;99481.20;106081;1274;109111;-74
2022/04/20 10:51:42;;;;;;;8.80;7.00;;;;;;;9.83;67.38;99479.29;105682;1274;137957;-74
2022/04/20 10:54:29;;;;;;;10.10;7.00;;;;;;;9.89;67.02;99481.64;107627;1274;96589;-74
2022/04/20 10:57:16;;;;;;;8.60;6.90;;;;;;;9.94;66.60;99480.02;106476;1274;97978;-74
2022/04/20 11:00:30;;;;;;;10.60;7.20;;;;;;;9.96;66.40;99478.00;107564;1274;137947;-77
2022/04/20 11:03:05;;;;;;;14.50;8.60;;;;;;;9.95;66.19;99477.38;107477;1274;108998;-76
2022/04/20 11:05:53;;;;;;;14.90;11.40;;;;;;;9.92;66.03;99480.29;107453;1274;137880;-76
2022/04/20 11:08:26;;;;;;;10.90;8.50;;;;;;;9.86;65.72;99480.33;107168;1274;97846;-76
2022/04/20 11:20:25;;;;;;;16.60;11.50;;;;;;;9.68;65.63;99477.45;105633;1279;108714;-75
2022/04/20 11:23:11;;;;;;;9.20;7.70;;;;;;;9.69;65.76;99478.96;105571;1281;138670;-74
2022/04/20 11:25:43;;;;;;;8.50;6.10;;;;;;;9.71;65.80;99478.39;105826;1281;97851;-74
2022/04/20 11:28:16;;;;;;;8.90;6.70;;;;;;;9.74;65.77;99478.29;105675;1280;137951;-75
2022/04/20 11:30:48;;;;;;;8.40;6.90;;;;;;;9.80;65.85;99487.05;107124;1279;106549;-76
2022/04/20 11:33:20;;;;;;;7.90;5.90;;;;;;;9.86;65.91;99487.11;107082;1279;108861;-75
2022/04/20 11:36:00;;;;;;;11.70;6.40;;;;;;;9.90;65.56;99484.53;105750;1281;138097;-75
2022/04/20 11:38:39;;;;;;;8.00;7.00;;;;;;;9.88;65.26;99482.88;105824;1281;98588;-75
2022/04/20 11:41:12;;;;;;;10.00;7.40;;;;;;;9.85;65.13;99486.14;105407;1281;137431;-75
2022/04/20 11:43:45;;;;;;;10.60;7.10;;;;;;;9.77;65.11;99488.55;105531;1281;107861;-75
2022/04/20 11:46:20;;;;;;;9.50;7.80;;;;;;;9.73;65.18;99485.96;105406;1281;137862;-75
2022/04/20 11:48:54;;;;;;;9.40;7.10;;;;;;;9.70;65.30;99488.83;105468;1281;97852;-75
2022/04/20 11:51:31;;;;;;;10.40;7.30;;;;;;;9.68;65.43;99488.72;106899;1276;138555;-74
2022/04/20 11:54:03;;;;;;;8.70;7.40;;;;;;;9.64;65.36;99490.80;106397;1276;112431;-75
2022/04/20 11:56:45;;;;;;;10.70;6.30;;;;;;;9.58;65.24;99487.23;106022;1277;108320;-75
2022/04/20 11:59:21;;;;;;;10.40;7.90;;;;;;;9.54;65.49;99480.79;105900;1276;138983;-77
2022/04/20 12:01:54;;;;;;;9.20;6.90;;;;;;;9.53;65.45;99486.23;105999;1276;98054;-74
2022/04/20 12:04:28;;;;;;;9.30;7.40;;;;;;;9.45;65.29;99482.73;107114;1276;138217;-75
2022/04/20 12:07:02;;;;;;;12.90;8.10;;;;;;;9.36;65.24;99486.36;105913;1276;112497;-76
2022/04/20 12:09:39;;;;;;;10.30;6.80;;;;;;;9.35;65.55;99487.96;105917;1274;138278;-75
2022/04/20 12:12:12;;;;;;;;;;;;;;;9.44;65.81;99488.33;106166;1274;107948;-73
2022/04/20 12:14:48;;;;;;;10.50;6.80;;;;;;;9.47;65.79;99493.04;106983;1275;96820;-75
2022/04/20 12:17:21;;;;;;;9.40;7.30;;;;;;;9.38;65.50;99493.23;106031;1274;137735;-72
2022/04/20 12:19:57;;;;;;;11.30;7.30;;;;;;;9.33;65.77;99497.23;106060;1275;112425;-76
2022/04/20 12:22:29;;;;;;;9.50;7.80;;;;;;;9.30;65.81;99500.98;106006;1275;138457;-76
2022/04/20 12:25:10;;;;;;;11.00;7.80;;;;;;;9.32;65.99;99500.75;107419;1274;108162;-74
2022/04/20 12:27:54;;;;;;;8.70;7.20;;;;;;;9.34;65.88;99497.90;106577;1275;138225;-75
2022/04/20 12:30:45;;;;;;;10.40;7.40;;;;;;;9.38;65.99;99498.61;105915;1276;97844;-74
2022/04/20 12:33:26;;;;;;;9.10;7.60;;;;;;;9.36;65.76;99498.18;105885;1276;112701;-74
2022/04/20 12:36:05;;;;;;;8.80;7.20;;;;;;;9.37;65.79;99503.02;106866;1274;138221;-76
2022/04/20 12:38:46;;;;;;;11.40;7.00;;;;;;;9.43;65.81;99500.83;105933;1275;107628;-76
2022/04/20 12:41:41;;;;;;;8.40;6.60;;;;;;;9.49;65.60;99498.00;105938;1274;138240;-77
2022/04/20 12:44:48;;;;;;;11.80;7.90;;;;;;;9.45;65.35;99499.73;106051;1274;97768;-76
2022/04/20 12:47:43;;;;;;;9.40;7.50;;;;;;;9.41;65.35;99500.40;106024;1274;137557;-76
2022/04/20 12:50:21;;;;;;;9.70;7.50;;;;;;;9.36;65.53;99498.67;106110;1275;108990;-76
2022/04/20 12:53:02;;;;;;;11.00;8.20;;;;;;;9.34;65.53;99500.52;106105;1273;137531;-75
2022/04/20 13:04:32;;;;;;;12.90;7.40;;;;;;;9.23;66.19;99505.11;106173;1274;138715;-73
2022/04/20 13:07:04;;;;;;;10.00;7.90;;;;;;;9.22;66.31;99506.89;106112;1274;107140;-76
2022/04/20 13:09:36;;;;;;;10.60;7.40;;;;;;;9.22;66.44;99511.05;105978;1274;97994;-77
2022/04/20 13:12:11;;;;;;;10.20;7.30;;;;;;;9.22;66.59;99511.56;105922;1274;138789;-77
2022/04/20 13:14:43;;;;;;;10.00;7.80;;;;;;;9.24;66.55;99511.83;107481;1274;111310;-76
2022/04/20 13:17:15;;;;;;;10.40;7.70;;;;;;;9.25;66.49;99511.95;105975;1274;151245;-76
2022/04/20 13:19:47;;;;;;;12.00;8.30;;;;;;;9.30;66.59;99507.93;106046;1274;107807;-75
2022/04/20 13:22:19;;;;;;;13.00;8.70;;;;;;;9.34;66.52;99511.09;105982;1274;137875;-75
2022/04/20 13:27:56;;;;;;;14.10;10.00;;;;;;;9.37;66.55;99520.17;106040;1274;110508;-76
2022/04/20 13:30:29;;;;;;;10.80;8.70;;;;;;;9.37;66.60;99519.63;105853;1274;137769;-77
2022/04/20 13:33:01;;;;;;;10.30;8.30;;;;;;;9.38;66.72;99522.40;105972;1274;107775;-76